createdAt,value
2023-04-01T00:01:17.434Z,1.05
2023-04-01T00:03:20.093Z,1.30
2023-04-01T00:05:22.211Z,1.00
2023-04-01T00:07:23.912Z,1.20
2023-04-01T00:09:25.642Z,1.20
2023-04-01T00:11:31.690Z,1.20
2023-04-01T00:13:33.494Z,1.10
2023-04-01T00:15:35.714Z,1.48
2023-04-01T00:17:37.587Z,1.08
2023-04-01T00:19:39.279Z,1.25
2023-04-01T00:21:41.342Z,1.52
2023-04-01T00:23:43.063Z,1.55
2023-04-01T00:25:46.343Z,1.83
2023-04-01T00:27:48.090Z,1.60
2023-04-01T00:29:51.029Z,1.67
2023-04-01T00:31:52.979Z,1.40
2023-04-01T00:33:55.169Z,1.30
2023-04-01T00:35:57.352Z,1.80
2023-04-01T00:37:59.886Z,1.77
2023-04-01T00:40:01.573Z,1.50
2023-04-01T00:42:04.833Z,1.75
2023-04-01T00:44:25.052Z,0.95
2023-04-01T00:46:26.917Z,1.40
2023-04-01T00:48:33.959Z,1.48
2023-04-01T00:50:36.835Z,1.05
2023-04-01T00:52:38.564Z,1.20
2023-04-01T00:54:43.285Z,1.88
2023-04-01T00:56:51.168Z,1.45
2023-04-01T00:58:57.962Z,1.17
2023-04-01T01:01:00.790Z,1.58
2023-04-01T01:03:03.729Z,1.80
2023-04-01T01:05:06.494Z,1.15
2023-04-01T01:07:13.772Z,1.30
2023-04-01T01:09:15.417Z,1.73
2023-04-01T01:11:22.209Z,1.10
2023-04-01T01:13:35.549Z,1.70
2023-04-01T01:15:42.865Z,1.30
2023-04-01T01:18:12.867Z,1.48
2023-04-01T01:20:35.954Z,1.00
2023-04-01T01:23:05.692Z,1.05
2023-04-01T01:25:31.992Z,1.35
2023-04-01T01:27:36.176Z,1.83
2023-04-01T01:29:50.456Z,1.00
2023-04-01T01:31:58.204Z,1.75
2023-04-01T01:34:08.058Z,1.40
2023-04-01T01:36:11.619Z,1.33
2023-04-01T01:38:18.799Z,1.60
2023-04-01T01:40:23.739Z,1.73
2023-04-01T01:42:27.367Z,1.30
2023-04-01T01:44:30.426Z,1.30
2023-04-01T01:46:32.333Z,1.23
2023-04-01T01:48:36.409Z,1.50
2023-04-01T01:50:38.903Z,1.20
2023-04-01T01:52:40.712Z,1.50
2023-04-01T01:54:53.578Z,1.02
2023-04-01T01:57:08.138Z,1.13
2023-04-01T01:59:11.421Z,1.00
2023-04-01T02:01:16.643Z,1.92
2023-04-01T02:03:18.923Z,1.33
2023-04-01T02:05:23.290Z,1.33
2023-04-01T02:07:28.976Z,1.10
2023-04-01T02:09:31.017Z,1.42
2023-04-01T02:11:37.500Z,1.35
2023-04-01T02:13:45.630Z,1.65
2023-04-01T02:15:48.854Z,1.55
2023-04-01T02:17:52.295Z,1.77
2023-04-01T02:19:57.790Z,1.60
2023-04-01T02:22:02.880Z,1.30
2023-04-01T02:24:07.268Z,2.25
2023-04-01T02:26:11.154Z,1.35
2023-04-01T02:28:14.098Z,1.92
2023-04-01T02:30:17.282Z,1.75
2023-04-01T02:32:21.174Z,1.40
2023-04-01T02:34:24.122Z,1.42
2023-04-01T02:36:25.974Z,1.40
2023-04-01T02:38:30.940Z,1.90
2023-04-01T02:40:46.204Z,1.52
2023-04-01T02:42:47.997Z,1.35
2023-04-01T02:44:49.784Z,1.38
2023-04-01T02:46:51.619Z,1.70
2023-04-01T02:48:53.319Z,1.83
2023-04-01T02:50:55.311Z,2.63
2023-04-01T02:52:57.231Z,1.25
2023-04-01T02:54:59.289Z,1.25
2023-04-01T02:57:01.087Z,1.20
2023-04-01T02:59:03.040Z,1.10
2023-04-01T03:01:04.942Z,1.30
2023-04-01T03:03:13.966Z,2.20
2023-04-01T03:05:16.020Z,1.40
2023-04-01T03:07:17.760Z,1.80
2023-04-01T03:09:19.472Z,1.80
2023-04-01T03:11:23.338Z,1.10
2023-04-01T03:13:26.001Z,1.92
2023-04-01T03:15:27.855Z,1.67
2023-04-01T03:17:29.576Z,1.33
2023-04-01T03:19:31.284Z,1.48
2023-04-01T03:21:33.081Z,1.25
2023-04-01T03:23:34.763Z,1.63
2023-04-01T03:25:36.779Z,1.38
2023-04-01T03:27:38.776Z,2.00
2023-04-01T03:29:40.684Z,1.88
2023-04-01T03:31:42.680Z,1.80
2023-04-01T03:33:44.566Z,1.75
2023-04-01T03:35:46.685Z,1.15
2023-04-01T03:37:48.352Z,1.52
2023-04-01T03:39:50.172Z,1.70
2023-04-01T03:41:52.084Z,1.10
2023-04-01T03:43:54.809Z,1.27
2023-04-01T03:45:58.977Z,1.30
2023-04-01T03:48:00.952Z,1.60
2023-04-01T03:50:03.834Z,1.90
2023-04-01T03:52:05.618Z,1.50
2023-04-01T03:54:07.619Z,1.38
2023-04-01T03:56:12.246Z,1.45
2023-04-01T03:58:14.010Z,2.67
2023-04-01T04:00:16.515Z,2.40
2023-04-01T04:02:18.270Z,1.40
2023-04-01T04:04:20.011Z,1.75
2023-04-01T04:06:21.776Z,2.05
2023-04-01T04:08:23.535Z,2.15
2023-04-01T04:10:26.116Z,4.20
2023-04-01T04:12:27.854Z,1.90
2023-04-01T04:14:29.555Z,1.40
2023-04-01T04:16:31.363Z,1.73
2023-04-01T04:18:33.501Z,1.60
2023-04-01T04:20:36.081Z,1.73
2023-04-01T04:22:37.914Z,1.67
2023-04-01T04:24:39.623Z,1.95
2023-04-01T04:26:41.459Z,1.30
2023-04-01T04:28:43.182Z,1.75
2023-04-01T04:30:44.821Z,1.52
2023-04-01T04:32:46.592Z,1.60
2023-04-01T04:34:48.303Z,1.98
2023-04-01T04:36:50.598Z,1.30
2023-04-01T04:38:52.292Z,1.60
2023-04-01T04:40:53.999Z,1.50
2023-04-01T04:42:55.747Z,1.40
2023-04-01T04:44:57.349Z,1.65
2023-04-01T04:46:59.049Z,1.85
2023-04-01T04:49:00.749Z,1.65
2023-04-01T04:51:03.096Z,1.20
2023-04-01T04:53:04.853Z,1.67
2023-04-01T04:55:06.989Z,1.45
2023-04-01T04:57:08.892Z,1.55
2023-04-01T04:59:10.643Z,1.40
2023-04-01T05:01:14.442Z,1.40
2023-04-01T05:03:16.377Z,1.48
2023-04-01T05:05:18.233Z,1.48
2023-04-01T05:07:19.949Z,1.58
2023-04-01T05:09:21.717Z,1.48
2023-04-01T05:11:23.446Z,1.55
2023-04-01T05:13:25.391Z,1.42
2023-04-01T05:15:27.140Z,1.38
2023-04-01T05:17:28.946Z,1.42
2023-04-01T05:19:30.728Z,1.35
2023-04-01T05:21:32.683Z,1.10
2023-04-01T05:23:34.432Z,1.50
2023-04-01T05:25:39.204Z,1.73
2023-04-01T05:27:41.127Z,1.42
2023-04-01T05:29:42.861Z,1.65
2023-04-01T05:31:44.594Z,1.63
2023-04-01T05:33:46.473Z,1.13
2023-04-01T05:35:48.151Z,1.30
2023-04-01T05:37:49.900Z,1.58
2023-04-01T05:39:51.542Z,1.10
2023-04-01T05:41:53.348Z,1.27
2023-04-01T05:43:55.172Z,1.33
2023-04-01T05:45:57.351Z,1.20
2023-04-01T05:48:00.643Z,1.02
2023-04-01T05:50:02.400Z,1.45
2023-04-01T05:52:04.367Z,1.90
2023-04-01T05:54:07.035Z,1.10
2023-04-01T05:56:10.550Z,1.17
2023-04-01T05:58:12.187Z,1.20
2023-04-01T06:00:14.340Z,1.65
2023-04-01T06:02:18.316Z,1.60
2023-04-01T06:04:20.091Z,1.38
2023-04-01T06:06:33.014Z,1.88
2023-04-01T06:08:34.772Z,0.98
2023-04-01T06:11:01.345Z,2.00
2023-04-01T06:13:22.904Z,1.63
2023-04-01T06:15:27.172Z,1.80
2023-04-01T06:17:47.778Z,1.73
2023-04-01T06:20:00.700Z,1.20
2023-04-01T06:22:07.926Z,1.33
2023-04-01T06:24:24.644Z,1.42
2023-04-01T06:26:46.799Z,1.42
2023-04-01T06:29:17.809Z,1.50
2023-04-01T06:31:37.549Z,1.45
2023-04-01T06:33:58.286Z,1.60
2023-04-01T06:36:06.106Z,1.35
2023-04-01T06:38:13.977Z,1.05
2023-04-01T06:40:43.186Z,1.40
2023-04-01T06:43:03.949Z,1.63
2023-04-01T06:45:19.024Z,1.10
2023-04-01T06:47:42.439Z,1.63
2023-04-01T06:50:02.582Z,1.52
2023-04-01T06:52:22.516Z,1.23
2023-04-01T06:54:36.801Z,1.20
2023-04-01T06:56:41.525Z,0.85
2023-04-01T06:59:18.579Z,1.30
2023-04-01T07:02:01.568Z,1.00
2023-04-01T07:04:07.693Z,0.60
2023-04-01T07:06:17.902Z,0.68
2023-04-01T07:08:23.969Z,0.95
2023-04-01T07:10:57.938Z,1.20
2023-04-01T07:13:02.148Z,1.05
2023-04-01T07:15:17.547Z,1.42
2023-04-01T07:17:23.369Z,0.90
2023-04-01T07:20:07.713Z,1.00
2023-04-01T07:22:28.383Z,1.10
2023-04-01T07:24:37.352Z,0.93
2023-04-01T07:26:39.017Z,1.10
2023-04-01T07:28:40.809Z,0.90
2023-04-01T07:31:10.447Z,0.90
2023-04-01T07:33:26.679Z,0.82
2023-04-01T07:35:32.343Z,1.35
2023-04-01T07:37:55.572Z,1.30
2023-04-01T07:40:08.860Z,0.93
2023-04-01T07:42:19.293Z,1.10
2023-04-01T07:44:28.763Z,1.25
2023-04-01T07:46:43.412Z,1.88
2023-04-01T07:48:50.438Z,0.90
2023-04-01T07:50:55.257Z,0.90
2023-04-01T07:53:02.557Z,0.82
2023-04-01T07:55:19.744Z,0.90
2023-04-01T07:57:26.776Z,0.95
2023-04-01T07:59:37.441Z,1.63
2023-04-01T08:02:03.054Z,1.30
2023-04-01T08:04:13.891Z,1.27
2023-04-01T08:06:29.714Z,0.98
2023-04-01T08:08:49.751Z,1.30
2023-04-01T08:10:54.755Z,1.20
2023-04-01T08:13:50.166Z,1.00
2023-04-01T08:16:00.725Z,1.17
2023-04-01T08:18:14.669Z,1.05
2023-04-01T08:20:27.513Z,1.73
2023-04-01T08:22:34.800Z,1.05
2023-04-01T08:24:48.369Z,1.13
2023-04-01T08:26:54.292Z,1.27
2023-04-01T08:28:55.995Z,1.08
2023-04-01T08:31:01.962Z,1.05
2023-04-01T08:33:18.535Z,0.82
2023-04-01T08:35:34.848Z,1.10
2023-04-01T08:37:40.971Z,1.17
2023-04-01T08:39:46.499Z,1.10
2023-04-01T08:42:03.109Z,1.23
2023-04-01T08:44:27.621Z,1.23
2023-04-01T08:46:44.902Z,0.80
2023-04-01T08:48:55.457Z,0.68
2023-04-01T08:51:24.963Z,0.90
2023-04-01T08:53:51.524Z,0.90
2023-04-01T08:56:21.800Z,0.90
2023-04-01T08:58:43.953Z,0.80
2023-04-01T09:00:55.996Z,0.80
2023-04-01T09:03:03.849Z,1.00
2023-04-01T09:05:24.593Z,0.70
2023-04-01T09:07:44.060Z,0.90
2023-04-01T09:09:56.240Z,0.77
2023-04-01T09:12:16.807Z,0.95
2023-04-01T09:14:32.540Z,1.10
2023-04-01T09:17:11.637Z,1.02
2023-04-01T09:19:42.159Z,0.90
2023-04-01T09:21:52.652Z,0.90
2023-04-01T09:24:00.847Z,1.00
2023-04-01T09:26:31.492Z,0.70
2023-04-01T09:28:46.626Z,0.73
2023-04-01T09:30:48.341Z,0.85
2023-04-01T09:33:17.545Z,0.70
2023-04-01T09:35:44.441Z,0.70
2023-04-01T09:38:13.357Z,0.80
2023-04-01T09:40:32.691Z,0.90
2023-04-01T09:42:53.061Z,0.88
2023-04-01T09:45:03.451Z,0.68
2023-04-01T09:47:45.279Z,0.85
2023-04-01T09:50:24.119Z,0.82
2023-04-01T09:52:50.149Z,1.35
2023-04-01T09:55:09.813Z,0.82
2023-04-01T09:57:46.785Z,0.85
2023-04-01T10:00:19.666Z,0.80
2023-04-01T10:02:42.944Z,0.93
2023-04-01T10:04:56.483Z,1.00
2023-04-01T10:07:22.745Z,0.80
2023-04-01T10:09:55.328Z,0.95
2023-04-01T10:12:17.748Z,0.80
2023-04-01T10:14:24.973Z,0.60
2023-04-01T10:16:58.796Z,0.60
2023-04-01T10:19:03.446Z,0.98
2023-04-01T10:21:18.927Z,0.60
2023-04-01T10:23:42.324Z,0.85
2023-04-01T10:26:03.734Z,1.30
2023-04-01T10:28:51.318Z,1.02
2023-04-01T10:31:11.906Z,1.08
2023-04-01T10:33:35.609Z,0.80
2023-04-01T10:36:03.273Z,0.57
2023-04-01T10:38:14.292Z,0.60
2023-04-01T10:40:43.953Z,0.73
2023-04-01T10:43:21.344Z,0.60
2023-04-01T10:45:50.856Z,0.90
2023-04-01T10:48:18.443Z,0.52
2023-04-01T10:50:46.597Z,0.63
2023-04-01T10:53:07.362Z,0.60
2023-04-01T10:55:46.348Z,0.60
2023-04-01T10:58:26.407Z,0.95
2023-04-01T11:00:49.373Z,0.80
2023-04-01T11:03:12.888Z,0.60
2023-04-01T11:05:32.909Z,0.80
2023-04-01T11:07:59.356Z,0.73
2023-04-01T11:10:32.575Z,0.70
2023-04-01T11:13:07.913Z,0.88
2023-04-01T11:16:06.266Z,0.80
2023-04-01T11:18:26.383Z,0.80
2023-04-01T11:21:08.572Z,0.82
2023-04-01T11:23:16.426Z,1.00
2023-04-01T11:26:19.879Z,0.73
2023-04-01T11:29:00.490Z,0.75
2023-04-01T11:31:16.916Z,0.70
2023-04-01T11:33:29.048Z,0.50
2023-04-01T11:35:33.841Z,0.90
2023-04-01T11:38:03.166Z,1.17
2023-04-01T11:40:15.790Z,0.77
2023-04-01T11:42:45.780Z,0.73
2023-04-01T11:45:17.038Z,1.10
2023-04-01T11:47:21.900Z,1.23
2023-04-01T11:50:01.670Z,1.05
2023-04-01T11:52:12.119Z,1.10
2023-04-01T11:54:27.456Z,1.00
2023-04-01T11:57:03.339Z,0.77
2023-04-01T11:59:32.875Z,0.90
2023-04-01T12:01:55.982Z,1.00
2023-04-01T12:04:12.485Z,0.70
2023-04-01T12:06:42.173Z,1.40
2023-04-01T12:08:57.965Z,1.10
2023-04-01T12:11:28.856Z,0.77
2023-04-01T12:13:57.734Z,1.65
2023-04-01T12:16:25.571Z,1.00
2023-04-01T12:18:45.974Z,0.80
2023-04-01T12:20:50.776Z,0.70
2023-04-01T12:23:16.394Z,0.65
2023-04-01T12:25:23.937Z,0.65
2023-04-01T12:27:45.370Z,0.80
2023-04-01T12:30:08.270Z,1.00
2023-04-01T12:32:26.201Z,1.15
2023-04-01T12:34:59.485Z,1.00
2023-04-01T12:37:22.511Z,1.75
2023-04-01T12:39:32.931Z,1.55
2023-04-01T12:41:56.719Z,1.30
2023-04-01T12:44:07.766Z,1.30
2023-04-01T12:46:33.621Z,1.48
2023-04-01T12:49:04.377Z,1.30
2023-04-01T12:51:29.335Z,1.30
2023-04-01T12:53:31.062Z,1.15
2023-04-01T12:55:46.240Z,0.98
2023-04-01T12:58:02.660Z,2.15
2023-04-01T13:00:11.069Z,0.90
2023-04-01T13:02:22.066Z,1.42
2023-04-01T13:04:26.712Z,1.30
2023-04-01T13:06:42.331Z,1.00
2023-04-01T13:09:08.721Z,1.00
2023-04-01T13:11:14.740Z,0.95
2023-04-01T13:13:35.096Z,0.75
2023-04-01T13:15:53.908Z,0.70
2023-04-01T13:18:23.434Z,0.73
2023-04-01T13:20:44.998Z,1.27
2023-04-01T13:22:56.309Z,1.63
2023-04-01T13:25:29.070Z,1.05
2023-04-01T13:27:45.484Z,1.00
2023-04-01T13:30:22.583Z,1.33
2023-04-01T13:32:43.975Z,0.88
2023-04-01T13:35:16.591Z,0.95
2023-04-01T13:37:39.593Z,0.98
2023-04-01T13:39:46.997Z,1.10
2023-04-01T13:42:12.525Z,1.10
2023-04-01T13:44:24.202Z,1.10
2023-04-01T13:46:55.799Z,0.93
2023-04-01T13:49:18.394Z,1.25
2023-04-01T13:51:57.708Z,1.30
2023-04-01T13:54:31.525Z,0.75
2023-04-01T13:56:44.166Z,0.95
2023-04-01T13:59:08.999Z,0.80
2023-04-01T14:01:47.590Z,0.77
2023-04-01T14:04:17.324Z,0.70
2023-04-01T14:06:33.007Z,0.95
2023-04-01T14:08:34.652Z,1.35
2023-04-01T14:10:43.946Z,0.90
2023-04-01T14:13:10.397Z,0.95
2023-04-01T14:15:43.853Z,1.10
2023-04-01T14:17:51.718Z,0.95
2023-04-01T14:20:15.064Z,1.25
2023-04-01T14:22:39.056Z,1.00
2023-04-01T14:25:28.153Z,1.10
2023-04-01T14:28:12.169Z,0.90
2023-04-01T14:30:35.801Z,1.00
2023-04-01T14:32:43.623Z,1.17
2023-04-01T14:35:00.754Z,0.90
2023-04-01T14:37:13.979Z,0.95
2023-04-01T14:39:21.506Z,1.23
2023-04-01T14:42:08.901Z,1.38
2023-04-01T14:44:32.363Z,0.88
2023-04-01T14:46:49.024Z,1.13
2023-04-01T14:48:54.341Z,1.13
2023-04-01T14:50:57.303Z,0.88
2023-04-01T14:53:17.395Z,1.60
2023-04-01T14:55:35.180Z,1.02
2023-04-01T14:57:37.151Z,0.73
2023-04-01T14:59:48.780Z,0.65
2023-04-01T15:02:04.872Z,0.68
2023-04-01T15:04:42.607Z,0.73
2023-04-01T15:07:28.504Z,0.85
2023-04-01T15:09:43.679Z,0.60
2023-04-01T15:11:48.669Z,0.77
2023-04-01T15:14:14.588Z,0.80
2023-04-01T15:16:25.095Z,0.60
2023-04-01T15:18:26.823Z,1.95
2023-04-01T15:20:49.157Z,0.70
2023-04-01T15:22:50.865Z,1.00
2023-04-01T15:25:04.583Z,1.20
2023-04-01T15:27:22.645Z,0.82
2023-04-01T15:30:02.199Z,1.15
2023-04-01T15:32:18.510Z,1.23
2023-04-01T15:34:43.516Z,1.10
2023-04-01T15:37:23.097Z,0.90
2023-04-01T15:39:44.049Z,0.70
2023-04-01T15:42:07.405Z,0.70
2023-04-01T15:44:42.510Z,0.70
2023-04-01T15:46:51.268Z,0.88
2023-04-01T15:49:17.655Z,0.80
2023-04-01T15:51:48.157Z,0.80
2023-04-01T15:54:10.721Z,0.80
2023-04-01T15:56:27.912Z,1.00
2023-04-01T15:58:29.579Z,0.75
2023-04-01T16:01:12.702Z,0.75
2023-04-01T16:03:41.674Z,0.85
2023-04-01T16:05:53.471Z,1.17
2023-04-01T16:08:13.063Z,0.90
2023-04-01T16:10:21.105Z,0.90
2023-04-01T16:12:48.517Z,0.75
2023-04-01T16:15:15.373Z,0.80
2023-04-01T16:17:17.040Z,0.82
2023-04-01T16:19:42.925Z,0.90
2023-04-01T16:21:53.450Z,0.80
2023-04-01T16:24:01.292Z,0.80
2023-04-01T16:26:11.220Z,0.98
2023-04-01T16:28:36.504Z,0.80
2023-04-01T16:30:56.546Z,1.00
2023-04-01T16:33:05.480Z,1.17
2023-04-01T16:35:41.560Z,1.52
2023-04-01T16:37:51.328Z,1.08
2023-04-01T16:40:22.041Z,1.08
2023-04-01T16:42:42.304Z,0.90
2023-04-01T16:44:49.677Z,0.70
2023-04-01T16:47:09.797Z,1.05
2023-04-01T16:49:14.216Z,0.85
2023-04-01T16:51:20.222Z,0.88
2023-04-01T16:53:37.598Z,0.80
2023-04-01T16:55:48.184Z,0.80
2023-04-01T16:57:57.435Z,1.00
2023-04-01T17:00:01.892Z,0.80
2023-04-01T17:02:12.658Z,1.20
2023-04-01T17:04:34.807Z,1.05
2023-04-01T17:06:59.784Z,0.80
2023-04-01T17:09:20.160Z,0.98
2023-04-01T17:11:28.507Z,0.80
2023-04-01T17:13:32.998Z,1.20
2023-04-01T17:15:37.766Z,0.85
2023-04-01T17:18:00.617Z,1.00
2023-04-01T17:20:17.102Z,0.80
2023-04-01T17:22:32.580Z,1.00
2023-04-01T17:24:47.075Z,1.25
2023-04-01T17:26:58.197Z,0.85
2023-04-01T17:29:13.128Z,1.05
2023-04-01T17:31:17.814Z,1.20
2023-04-01T17:33:47.390Z,0.95
2023-04-01T17:35:49.168Z,1.50
2023-04-01T17:38:03.152Z,0.60
2023-04-01T17:40:22.654Z,1.10
2023-04-01T17:42:56.072Z,0.85
2023-04-01T17:45:09.680Z,0.90
2023-04-01T17:47:23.474Z,1.00
2023-04-01T17:49:51.323Z,0.80
2023-04-01T17:52:05.163Z,0.95
2023-04-01T17:54:25.109Z,1.17
2023-04-01T17:56:39.222Z,1.20
2023-04-01T17:58:41.064Z,1.08
2023-04-01T18:01:03.599Z,1.10
2023-04-01T18:03:43.639Z,0.80
2023-04-01T18:06:01.730Z,1.00
2023-04-01T18:08:40.748Z,1.00
2023-04-01T18:10:44.661Z,1.08
2023-04-01T18:13:14.662Z,0.93
2023-04-01T18:15:37.328Z,0.73
2023-04-01T18:17:57.657Z,0.80
2023-04-01T18:20:21.458Z,0.88
2023-04-01T18:22:52.559Z,1.00
2023-04-01T18:25:00.846Z,1.00
2023-04-01T18:27:02.508Z,1.10
2023-04-01T18:29:13.182Z,1.17
2023-04-01T18:31:20.736Z,1.23
2023-04-01T18:33:32.412Z,1.17
2023-04-01T18:35:34.069Z,1.00
2023-04-01T18:37:42.956Z,2.13
2023-04-01T18:39:51.387Z,1.20
2023-04-01T18:42:00.625Z,2.10
2023-04-01T18:44:29.514Z,1.20
2023-04-01T18:46:50.856Z,1.25
2023-04-01T18:49:09.000Z,1.50
2023-04-01T18:51:40.340Z,1.10
2023-04-01T18:53:58.273Z,1.17
2023-04-01T18:56:28.257Z,1.15
2023-04-01T18:58:49.768Z,1.17
2023-04-01T19:01:03.832Z,1.52
2023-04-01T19:03:17.493Z,1.95
2023-04-01T19:05:34.095Z,1.70
2023-04-01T19:07:38.677Z,1.00
2023-04-01T19:09:48.931Z,1.67
2023-04-01T19:12:41.675Z,1.70
2023-04-01T19:14:54.502Z,1.48
2023-04-01T19:17:44.045Z,1.80
2023-04-01T19:19:54.828Z,1.27
2023-04-01T19:22:00.871Z,1.80
2023-04-01T19:24:02.764Z,1.17
2023-04-01T19:26:07.739Z,1.88
2023-04-01T19:28:39.914Z,1.75
2023-04-01T19:30:56.460Z,1.50
2023-04-01T19:33:17.943Z,1.60
2023-04-01T19:35:28.187Z,1.95
2023-04-01T19:37:41.146Z,2.38
2023-04-01T19:40:19.648Z,1.00
2023-04-01T19:42:43.218Z,1.20
2023-04-01T19:45:15.522Z,1.13
2023-04-01T19:47:28.257Z,1.17
2023-04-01T19:49:40.058Z,1.45
2023-04-01T19:52:05.056Z,1.05
2023-04-01T19:54:24.646Z,1.40
2023-04-01T19:56:37.465Z,1.20
2023-04-01T19:58:57.482Z,1.30
2023-04-01T20:01:05.241Z,1.35
2023-04-01T20:03:18.632Z,1.05
2023-04-01T20:05:52.736Z,1.70
2023-04-01T20:08:00.079Z,1.85
2023-04-01T20:10:04.988Z,1.42
2023-04-01T20:12:15.926Z,1.38
2023-04-01T20:14:32.996Z,1.38
2023-04-01T20:17:03.789Z,1.58
2023-04-01T20:19:05.510Z,1.50
2023-04-01T20:21:07.232Z,1.58
2023-04-01T20:23:11.533Z,1.63
2023-04-01T20:25:32.269Z,1.08
2023-04-01T20:27:37.939Z,1.20
2023-04-01T20:29:49.002Z,1.20
2023-04-01T20:32:09.198Z,2.25
2023-04-01T20:34:10.969Z,4.88
2023-04-01T20:36:34.201Z,4.30
2023-04-01T20:39:03.681Z,2.58
2023-04-01T20:41:25.059Z,2.15
2023-04-01T20:43:49.815Z,1.90
2023-04-01T20:46:18.119Z,1.10
2023-04-01T20:48:38.415Z,1.35
2023-04-01T20:50:51.400Z,1.45
2023-04-01T20:53:21.226Z,1.10
2023-04-01T20:55:52.968Z,1.60
2023-04-01T20:58:27.772Z,1.70
2023-04-01T21:00:59.422Z,1.50
2023-04-01T21:03:01.252Z,1.60
2023-04-01T21:05:27.628Z,1.65
2023-04-01T21:07:48.092Z,1.40
2023-04-01T21:10:41.280Z,1.30
2023-04-01T21:12:51.861Z,1.55
2023-04-01T21:15:38.355Z,1.30
2023-04-01T21:17:43.299Z,1.90
2023-04-01T21:20:07.504Z,1.70
2023-04-01T21:22:18.493Z,1.77
2023-04-01T21:24:45.069Z,1.42
2023-04-01T21:27:17.494Z,1.58
2023-04-01T21:29:31.266Z,1.52
2023-04-01T21:31:39.006Z,1.90
2023-04-01T21:34:03.525Z,1.95
2023-04-01T21:36:20.619Z,2.28
2023-04-01T21:38:39.435Z,2.17
2023-04-01T21:41:06.966Z,1.27
2023-04-01T21:43:24.235Z,1.50
2023-04-01T21:45:50.048Z,1.63
2023-04-01T21:48:28.665Z,1.27
2023-04-01T21:51:07.551Z,1.25
2023-04-01T21:53:36.918Z,1.30
2023-04-01T21:56:11.003Z,1.30
2023-04-01T21:58:54.586Z,1.35
2023-04-01T22:01:18.818Z,1.30
2023-04-01T22:04:01.645Z,1.15
2023-04-01T22:06:09.366Z,1.42
2023-04-01T22:08:31.659Z,1.30
2023-04-01T22:10:36.344Z,1.02
2023-04-01T22:12:48.232Z,1.20
2023-04-01T22:15:19.556Z,1.35
2023-04-01T22:17:42.514Z,1.42
2023-04-01T22:20:14.838Z,1.55
2023-04-01T22:22:28.789Z,1.60
2023-04-01T22:24:52.069Z,1.20
2023-04-01T22:27:08.321Z,1.58
2023-04-01T22:29:36.056Z,1.33
2023-04-01T22:31:44.895Z,1.10
2023-04-01T22:33:54.192Z,1.08
2023-04-01T22:36:01.895Z,0.95
2023-04-01T22:38:39.841Z,0.80
2023-04-01T22:41:13.465Z,1.40
2023-04-01T22:43:39.306Z,0.80
2023-04-01T22:45:58.852Z,0.95
2023-04-01T22:48:20.756Z,1.30
2023-04-01T22:50:31.160Z,1.13
2023-04-01T22:52:37.961Z,1.15
2023-04-01T22:54:46.597Z,1.30
2023-04-01T22:57:31.998Z,1.27
2023-04-01T22:59:46.326Z,1.50
2023-04-01T23:01:58.678Z,1.42
2023-04-01T23:04:01.324Z,1.48
2023-04-01T23:06:05.355Z,1.20
2023-04-01T23:08:27.209Z,1.23
2023-04-01T23:10:42.727Z,1.77
2023-04-01T23:12:45.695Z,1.50
2023-04-01T23:14:52.864Z,1.23
2023-04-01T23:17:31.225Z,1.20
2023-04-01T23:20:04.503Z,1.30
2023-04-01T23:22:13.632Z,1.38
2023-04-01T23:24:29.525Z,1.40
2023-04-01T23:26:54.824Z,1.48
2023-04-01T23:28:57.904Z,1.30
2023-04-01T23:30:59.720Z,1.42
2023-04-01T23:33:19.850Z,1.10
2023-04-01T23:35:21.743Z,1.20
2023-04-01T23:37:24.117Z,0.90
2023-04-01T23:39:44.908Z,1.25
2023-04-01T23:41:46.793Z,1.00
2023-04-01T23:44:06.556Z,1.05
2023-04-01T23:46:08.965Z,0.88
2023-04-01T23:48:16.874Z,1.10
2023-04-01T23:50:24.588Z,1.15
2023-04-01T23:52:28.966Z,1.00
2023-04-01T23:54:41.057Z,1.00
2023-04-01T23:56:45.650Z,0.90
2023-04-01T23:58:49.917Z,1.30
